^^
Saratoga-Weather Station Historical Data
Daily Summary for January 8, 2020 Units:  Both    English   Metric
Daily Weekly Monthly Yearly Custom
  High: Low: Average:
Temperature: 56.5 °F /  13.6 °C 41.2 °F /  5.1 °C 47.7 °F /  8.7 °C
Dew Point: 51.4 °F /  10.8 °C 40.1 °F /  4.5 °C 45.5 °F /  7.5 °C
Humidity: 97% 80% 93%
Wind Speed: 2.9mph /  4.7km/h - 0.1mph /  0.2km/h
Wind Gust: 3mph /  4.8km/h - -
Wind- - East
Pressure: 30.2 in /  1024.0 hPa 30.2 in /  1022.0 hPa -
Precipitation: 0 in /  0.0 mm    
Historical Graphs
 
 
Tabular Data for January 8, 2020
Time Temperature Dew Point Pressure Wind Wind Speed Wind Gust Humidity Rainfall Rate (Hourly) solar
00:04 42.6 °F /  5.9 °C 41.5 °F /  5.3 °C 30.2in /  1023.0hPa Calm     96% 0in /  0.0mm 0 W/m2
00:09 42.6 °F /  5.9 °C 41.5 °F /  5.3 °C 30.2in /  1023.0hPa Calm     96% 0in /  0.0mm 0 W/m2
00:14 42.6 °F /  5.9 °C 41.5 °F /  5.3 °C 30.2in /  1023.0hPa Calm     96% 0in /  0.0mm 0 W/m2
00:19 42.4 °F /  5.8 °C 41.4 °F /  5.2 °C 30.2in /  1023.0hPa Calm     96% 0in /  0.0mm 0 W/m2
00:24 42.4 °F /  5.8 °C 41.4 °F /  5.2 °C 30.2in /  1023.0hPa Calm     96% 0in /  0.0mm 0 W/m2
00:29 42.4 °F /  5.8 °C 41.4 °F /  5.2 °C 30.2in /  1023.4hPa Calm     96% 0in /  0.0mm 0 W/m2
00:34 42.4 °F /  5.8 °C 41.4 °F /  5.2 °C 30.2in /  1023.4hPa Calm     96% 0in /  0.0mm 0 W/m2
00:39 42.6 °F /  5.9 °C 41.5 °F /  5.3 °C 30.2in /  1023.4hPa Calm     96% 0in /  0.0mm 0 W/m2
00:44 42.6 °F /  5.9 °C 41.5 °F /  5.3 °C 30.2in /  1023.0hPa Calm     96% 0in /  0.0mm 0 W/m2
00:49 42.8 °F /  6 °C 41.7 °F /  5.4 °C 30.2in /  1023.0hPa Calm     96% 0in /  0.0mm 0 W/m2
00:54 42.8 °F /  6 °C 41.7 °F /  5.4 °C 30.2in /  1023.0hPa Calm     96% 0in /  0.0mm 0 W/m2
00:59 42.8 °F /  6 °C 41.7 °F /  5.4 °C 30.2in /  1023.0hPa Calm     96% 0in /  0.0mm 0 W/m2
01:04 43 °F /  6.1 °C 41.9 °F /  5.5 °C 30.2in /  1023.0hPa Calm     96% 0in /  0.0mm 0 W/m2
01:09 43 °F /  6.1 °C 41.9 °F /  5.5 °C 30.2in /  1023.0hPa Calm     96% 0in /  0.0mm 0 W/m2
01:14 43 °F /  6.1 °C 41.9 °F /  5.5 °C 30.2in /  1023.0hPa Calm     96% 0in /  0.0mm 0 W/m2
01:19 43 °F /  6.1 °C 41.9 °F /  5.5 °C 30.2in /  1022.7hPa Calm     96% 0in /  0.0mm 0 W/m2
01:25 43.2 °F /  6.2 °C 42.1 °F /  5.6 °C 30.2in /  1023.0hPa Calm     96% 0in /  0.0mm 0 W/m2
01:30 43.2 °F /  6.2 °C 42.1 °F /  5.6 °C 30.2in /  1023.0hPa Calm     96% 0in /  0.0mm 0 W/m2
01:35 43.2 °F /  6.2 °C 42.1 °F /  5.6 °C 30.2in /  1022.7hPa Calm     96% 0in /  0.0mm 0 W/m2
01:40 43.2 °F /  6.2 °C 42.1 °F /  5.6 °C 30.2in /  1022.7hPa Calm     96% 0in /  0.0mm 0 W/m2
01:45 43 °F /  6.1 °C 41.9 °F /  5.5 °C 30.2in /  1023.0hPa Calm     96% 0in /  0.0mm 0 W/m2
01:50 43 °F /  6.1 °C 41.9 °F /  5.5 °C 30.2in /  1022.7hPa Calm     96% 0in /  0.0mm 0 W/m2
01:55 43 °F /  6.1 °C 41.9 °F /  5.5 °C 30.2in /  1023.0hPa Calm     96% 0in /  0.0mm 0 W/m2
02:00 42.8 °F /  6 °C 41.7 °F /  5.4 °C 30.2in /  1023.0hPa Calm     96% 0in /  0.0mm 0 W/m2
02:05 42.6 °F /  5.9 °C 41.5 °F /  5.3 °C 30.2in /  1023.0hPa Calm     96% 0in /  0.0mm 0 W/m2
02:10 42.6 °F /  5.9 °C 41.5 °F /  5.3 °C 30.2in /  1023.0hPa Calm     96% 0in /  0.0mm 0 W/m2
02:15 42.4 °F /  5.8 °C 41.4 °F /  5.2 °C 30.2in /  1022.7hPa Calm     96% 0in /  0.0mm 0 W/m2
02:20 42.3 °F /  5.7 °C 41.2 °F /  5.1 °C 30.2in /  1023.0hPa Calm     96% 0in /  0.0mm 0 W/m2
02:25 42.3 °F /  5.7 °C 41.2 °F /  5.1 °C 30.2in /  1022.7hPa Calm     96% 0in /  0.0mm 0 W/m2
02:30 42.1 °F /  5.6 °C 41 °F /  5 °C 30.2in /  1023.0hPa Calm     96% 0in /  0.0mm 0 W/m2
02:35 42.1 °F /  5.6 °C 41 °F /  5 °C 30.2in /  1023.0hPa Calm     96% 0in /  0.0mm 0 W/m2
02:40 41.9 °F /  5.5 °C 40.8 °F /  4.9 °C 30.2in /  1023.0hPa Calm     96% 0in /  0.0mm 0 W/m2
02:45 41.7 °F /  5.4 °C 40.6 °F /  4.8 °C 30.2in /  1023.0hPa Calm     96% 0in /  0.0mm 0 W/m2
02:50 41.7 °F /  5.4 °C 40.6 °F /  4.8 °C 30.2in /  1023.0hPa Calm     96% 0in /  0.0mm 0 W/m2
02:55 41.7 °F /  5.4 °C 40.6 °F /  4.8 °C 30.2in /  1023.0hPa Calm     96% 0in /  0.0mm 0 W/m2
03:00 41.7 °F /  5.4 °C 40.6 °F /  4.8 °C 30.2in /  1023.0hPa Calm     96% 0in /  0.0mm 0 W/m2
03:05 41.5 °F /  5.3 °C 40.5 °F /  4.7 °C 30.2in /  1023.0hPa Calm     96% 0in /  0.0mm 0 W/m2
03:10 41.5 °F /  5.3 °C 40.5 °F /  4.7 °C 30.2in /  1022.7hPa Calm     96% 0in /  0.0mm 0 W/m2
03:15 41.5 °F /  5.3 °C 40.5 °F /  4.7 °C 30.2in /  1023.0hPa Calm     96% 0in /  0.0mm 0 W/m2
03:20 41.4 °F /  5.2 °C 40.3 °F /  4.6 °C 30.2in /  1023.0hPa Calm     96% 0in /  0.0mm 0 W/m2
03:25 41.4 °F /  5.2 °C 40.3 °F /  4.6 °C 30.2in /  1022.7hPa Calm     96% 0in /  0.0mm 0 W/m2
03:30 41.4 °F /  5.2 °C 40.3 °F /  4.6 °C 30.2in /  1022.7hPa Calm     96% 0in /  0.0mm 0 W/m2
03:35 41.4 °F /  5.2 °C 40.3 °F /  4.6 °C 30.2in /  1022.7hPa Calm     96% 0in /  0.0mm 0 W/m2
03:40 41.4 °F /  5.2 °C 40.3 °F /  4.6 °C 30.2in /  1022.7hPa Calm     96% 0in /  0.0mm 0 W/m2
03:45 41.2 °F /  5.1 °C 40.1 °F /  4.5 °C 30.2in /  1022.7hPa Calm     96% 0in /  0.0mm 0 W/m2
03:50 41.2 °F /  5.1 °C 40.1 °F /  4.5 °C 30.2in /  1022.7hPa Calm     96% 0in /  0.0mm 0 W/m2
03:55 41.2 °F /  5.1 °C 40.1 °F /  4.5 °C 30.2in /  1022.7hPa Calm     96% 0in /  0.0mm 0 W/m2
04:00 41.2 °F /  5.1 °C 40.1 °F /  4.5 °C 30.2in /  1022.7hPa Calm     96% 0in /  0.0mm 0 W/m2
04:05 41.4 °F /  5.2 °C 40.3 °F /  4.6 °C 30.2in /  1022.7hPa Calm     96% 0in /  0.0mm 0 W/m2
04:10 41.4 °F /  5.2 °C 40.3 °F /  4.6 °C 30.2in /  1022.7hPa Calm     96% 0in /  0.0mm 0 W/m2
04:15 41.5 °F /  5.3 °C 40.5 °F /  4.7 °C 30.2in /  1022.7hPa Calm     96% 0in /  0.0mm 0 W/m2
04:20 41.5 °F /  5.3 °C 40.5 °F /  4.7 °C 30.2in /  1022.7hPa Calm     96% 0in /  0.0mm 0 W/m2
04:25 41.5 °F /  5.3 °C 40.5 °F /  4.7 °C 30.2in /  1022.7hPa Calm     96% 0in /  0.0mm 0 W/m2
04:30 41.7 °F /  5.4 °C 41 °F /  5 °C 30.2in /  1022.7hPa Calm     97% 0in /  0.0mm 0 W/m2
04:35 41.7 °F /  5.4 °C 41 °F /  5 °C 30.2in /  1022.7hPa Calm     97% 0in /  0.0mm 0 W/m2
04:40 41.9 °F /  5.5 °C 41.2 °F /  5.1 °C 30.2in /  1022.7hPa Calm     97% 0in /  0.0mm 0 W/m2
04:45 41.9 °F /  5.5 °C 41.2 °F /  5.1 °C 30.2in /  1022.7hPa Calm     97% 0in /  0.0mm 0 W/m2
04:50 42.1 °F /  5.6 °C 41.4 °F /  5.2 °C 30.2in /  1022.7hPa Calm     97% 0in /  0.0mm 0 W/m2
04:55 42.1 °F /  5.6 °C 41.4 °F /  5.2 °C 30.2in /  1022.7hPa Calm     97% 0in /  0.0mm 0 W/m2
05:00 42.3 °F /  5.7 °C 41.5 °F /  5.3 °C 30.2in /  1022.7hPa Calm     97% 0in /  0.0mm 0 W/m2
05:05 42.3 °F /  5.7 °C 41.5 °F /  5.3 °C 30.2in /  1022.7hPa Calm     97% 0in /  0.0mm 0 W/m2
05:11 42.4 °F /  5.8 °C 41.7 °F /  5.4 °C 30.2in /  1022.7hPa Calm     97% 0in /  0.0mm 0 W/m2
05:16 42.4 °F /  5.8 °C 41.7 °F /  5.4 °C 30.2in /  1023.0hPa Calm     97% 0in /  0.0mm 0 W/m2
05:21 42.4 °F /  5.8 °C 41.7 °F /  5.4 °C 30.2in /  1023.0hPa Calm     97% 0in /  0.0mm 0 W/m2
05:26 42.4 °F /  5.8 °C 41.7 °F /  5.4 °C 30.2in /  1022.7hPa Calm     97% 0in /  0.0mm 0 W/m2
05:31 42.3 °F /  5.7 °C 41.5 °F /  5.3 °C 30.2in /  1022.7hPa Calm     97% 0in /  0.0mm 0 W/m2
05:36 42.3 °F /  5.7 °C 41.5 °F /  5.3 °C 30.2in /  1023.0hPa Calm     97% 0in /  0.0mm 0 W/m2
05:41 42.3 °F /  5.7 °C 41.2 °F /  5.1 °C 30.2in /  1022.7hPa Calm     96% 0in /  0.0mm 0 W/m2
05:46 42.3 °F /  5.7 °C 41.2 °F /  5.1 °C 30.2in /  1023.0hPa Calm     96% 0in /  0.0mm 0 W/m2
05:51 42.3 °F /  5.7 °C 41.5 °F /  5.3 °C 30.2in /  1023.0hPa Calm     97% 0in /  0.0mm 0 W/m2
05:56 42.3 °F /  5.7 °C 41.5 °F /  5.3 °C 30.2in /  1023.0hPa Calm     97% 0in /  0.0mm 0 W/m2
06:01 42.4 °F /  5.8 °C 41.7 °F /  5.4 °C 30.2in /  1023.0hPa Calm     97% 0in /  0.0mm 0 W/m2
06:06 42.4 °F /  5.8 °C 41.7 °F /  5.4 °C 30.2in /  1023.0hPa Calm     97% 0in /  0.0mm 0 W/m2
06:11 42.4 °F /  5.8 °C 41.7 °F /  5.4 °C 30.2in /  1023.0hPa Calm     97% 0in /  0.0mm 0 W/m2
06:16 42.3 °F /  5.7 °C 41.5 °F /  5.3 °C 30.2in /  1023.0hPa Calm     97% 0in /  0.0mm 0 W/m2
06:21 42.3 °F /  5.7 °C 41.5 °F /  5.3 °C 30.2in /  1023.0hPa Calm     97% 0in /  0.0mm 0 W/m2
06:26 42.3 °F /  5.7 °C 41.5 °F /  5.3 °C 30.2in /  1023.0hPa Calm     97% 0in /  0.0mm 0 W/m2
06:31 42.3 °F /  5.7 °C 41.5 °F /  5.3 °C 30.2in /  1023.0hPa Calm     97% 0in /  0.0mm 0 W/m2
06:36 42.3 °F /  5.7 °C 41.5 °F /  5.3 °C 30.2in /  1023.0hPa Calm     97% 0in /  0.0mm 0 W/m2
06:41 42.3 °F /  5.7 °C 41.5 °F /  5.3 °C 30.2in /  1023.0hPa Calm     97% 0in /  0.0mm 0 W/m2
06:46 42.3 °F /  5.7 °C 41.5 °F /  5.3 °C 30.2in /  1023.4hPa Calm     97% 0in /  0.0mm 0 W/m2
06:51 42.3 °F /  5.7 °C 41.5 °F /  5.3 °C 30.2in /  1023.4hPa Calm     97% 0in /  0.0mm 0 W/m2
06:56 42.3 °F /  5.7 °C 41.5 °F /  5.3 °C 30.2in /  1023.0hPa Calm     97% 0in /  0.0mm 0 W/m2
07:01 42.3 °F /  5.7 °C 41.5 °F /  5.3 °C 30.2in /  1023.0hPa Calm     97% 0in /  0.0mm 0 W/m2
07:06 42.3 °F /  5.7 °C 41.5 °F /  5.3 °C 30.2in /  1023.4hPa Calm     97% 0in /  0.0mm 0 W/m2
07:11 42.1 °F /  5.6 °C 41.4 °F /  5.2 °C 30.2in /  1023.4hPa Calm     97% 0in /  0.0mm 0 W/m2
07:16 42.1 °F /  5.6 °C 41.4 °F /  5.2 °C 30.2in /  1023.4hPa Calm     97% 0in /  0.0mm 0 W/m2
07:21 42.1 °F /  5.6 °C 41.4 °F /  5.2 °C 30.2in /  1023.4hPa Calm     97% 0in /  0.0mm 0 W/m2
07:26 42.1 °F /  5.6 °C 41.4 °F /  5.2 °C 30.2in /  1023.0hPa Calm     97% 0in /  0.0mm 0 W/m2
07:31 41.7 °F /  5.4 °C 41 °F /  5 °C 30.2in /  1023.4hPa Calm     97% 0in /  0.0mm 0 W/m2
07:36 41.7 °F /  5.4 °C 41 °F /  5 °C 30.2in /  1023.4hPa Calm     97% 0in /  0.0mm 0 W/m2
07:41 41.7 °F /  5.4 °C 41 °F /  5 °C 30.2in /  1023.4hPa Calm     97% 0in /  0.0mm 0 W/m2
07:46 41.5 °F /  5.3 °C 40.5 °F /  4.7 °C 30.2in /  1023.4hPa Calm     96% 0in /  0.0mm 5 W/m2
07:51 41.5 °F /  5.3 °C 40.5 °F /  4.7 °C 30.2in /  1023.4hPa Calm     96% 0in /  0.0mm 7 W/m2
07:56 41.5 °F /  5.3 °C 40.5 °F /  4.7 °C 30.2in /  1023.4hPa Calm     96% 0in /  0.0mm 9 W/m2
08:01 41.4 °F /  5.2 °C 40.3 °F /  4.6 °C 30.2in /  1023.4hPa Calm     96% 0in /  0.0mm 11 W/m2
08:06 41.4 °F /  5.2 °C 40.6 °F /  4.8 °C 30.2in /  1023.4hPa Calm     97% 0in /  0.0mm 12 W/m2
08:11 41.4 °F /  5.2 °C 40.6 °F /  4.8 °C 30.2in /  1023.4hPa Calm     97% 0in /  0.0mm 14 W/m2
08:16 41.4 °F /  5.2 °C 40.6 °F /  4.8 °C 30.2in /  1023.4hPa Calm     97% 0in /  0.0mm 16 W/m2
08:21 41.5 °F /  5.3 °C 40.8 °F /  4.9 °C 30.2in /  1023.4hPa Calm     97% 0in /  0.0mm 19 W/m2
08:26 41.5 °F /  5.3 °C 40.8 °F /  4.9 °C 30.2in /  1023.7hPa Calm     97% 0in /  0.0mm 21 W/m2
08:31 41.5 °F /  5.3 °C 40.8 °F /  4.9 °C 30.2in /  1023.7hPa Calm     97% 0in /  0.0mm 25 W/m2
08:36 41.5 °F /  5.3 °C 40.8 °F /  4.9 °C 30.2in /  1023.7hPa Calm     97% 0in /  0.0mm 30 W/m2
08:41 41.7 °F /  5.4 °C 41 °F /  5 °C 30.2in /  1023.4hPa Calm     97% 0in /  0.0mm 33 W/m2
08:46 41.9 °F /  5.5 °C 41.2 °F /  5.1 °C 30.2in /  1023.7hPa Calm     97% 0in /  0.0mm 42 W/m2
08:51 42.1 °F /  5.6 °C 41.4 °F /  5.2 °C 30.2in /  1023.7hPa Calm     97% 0in /  0.0mm 51 W/m2
08:56 42.3 °F /  5.7 °C 41.5 °F /  5.3 °C 30.2in /  1023.7hPa Calm     97% 0in /  0.0mm 58 W/m2
09:01 42.4 °F /  5.8 °C 41.7 °F /  5.4 °C 30.2in /  1023.7hPa Calm     97% 0in /  0.0mm 65 W/m2
09:06 42.6 °F /  5.9 °C 41.9 °F /  5.5 °C 30.2in /  1023.7hPa Calm     97% 0in /  0.0mm 72 W/m2
09:11 43 °F /  6.1 °C 42.3 °F /  5.7 °C 30.2in /  1023.7hPa Calm     97% 0in /  0.0mm 76 W/m2
09:16 43.3 °F /  6.3 °C 42.6 °F /  5.9 °C 30.2in /  1023.7hPa Calm     97% 0in /  0.0mm 76 W/m2
09:21 43.7 °F /  6.5 °C 43 °F /  6.1 °C 30.2in /  1023.7hPa Calm     97% 0in /  0.0mm 74 W/m2
09:26 44.1 °F /  6.7 °C 43.3 °F /  6.3 °C 30.2in /  1023.7hPa Calm   1mph /  1.6km/h 97% 0in /  0.0mm 74 W/m2
09:31 44.4 °F /  6.9 °C 43.7 °F /  6.5 °C 30.2in /  1023.7hPa Calm     97% 0in /  0.0mm 74 W/m2
09:36 44.6 °F /  7 °C 43.9 °F /  6.6 °C 30.2in /  1023.7hPa Calm   1mph /  1.6km/h 97% 0in /  0.0mm 72 W/m2
09:41 44.8 °F /  7.1 °C 44.1 °F /  6.7 °C 30.2in /  1023.7hPa Calm   1mph /  1.6km/h 97% 0in /  0.0mm 77 W/m2
09:46 45 °F /  7.2 °C 44.2 °F /  6.8 °C 30.2in /  1023.7hPa Calm     97% 0in /  0.0mm 81 W/m2
09:51 45 °F /  7.2 °C 44.2 °F /  6.8 °C 30.2in /  1023.7hPa Calm     97% 0in /  0.0mm 76 W/m2
09:56 45 °F /  7.2 °C 44.2 °F /  6.8 °C 30.2in /  1023.7hPa Calm   2mph /  3.2km/h 97% 0in /  0.0mm 81 W/m2
10:01 45 °F /  7.2 °C 44.2 °F /  6.8 °C 30.2in /  1023.7hPa Calm     97% 0in /  0.0mm 79 W/m2
10:06 45.1 °F /  7.3 °C 44.4 °F /  6.9 °C 30.2in /  1023.7hPa ENE 2mph /  3.2km/h 2mph /  3.2km/h 97% 0in /  0.0mm 77 W/m2
10:11 45.3 °F /  7.4 °C 44.6 °F /  7 °C 30.2in /  1024.0hPa NE 0.9mph /  1.4km/h 2mph /  3.2km/h 97% 0in /  0.0mm 74 W/m2
10:16 45.7 °F /  7.6 °C 45 °F /  7.2 °C 30.2in /  1024.0hPa ENE 2mph /  3.2km/h 3mph /  4.8km/h 97% 0in /  0.0mm 76 W/m2
10:21 45.9 °F /  7.7 °C 45.1 °F /  7.3 °C 30.2in /  1024.0hPa Calm     97% 0in /  0.0mm 69 W/m2
10:26 46.2 °F /  7.9 °C 45.5 °F /  7.5 °C 30.2in /  1024.0hPa Calm     97% 0in /  0.0mm 69 W/m2
10:31 46.4 °F /  8 °C 45.7 °F /  7.6 °C 30.2in /  1024.0hPa Calm     97% 0in /  0.0mm 65 W/m2
10:36 46.6 °F /  8.1 °C 45.9 °F /  7.7 °C 30.2in /  1024.0hPa Calm     97% 0in /  0.0mm 67 W/m2
10:41 46.8 °F /  8.2 °C 45.7 °F /  7.6 °C 30.2in /  1023.7hPa Calm   1mph /  1.6km/h 96% 0in /  0.0mm 65 W/m2
10:47 46.9 °F /  8.3 °C 45.9 °F /  7.7 °C 30.2in /  1023.7hPa Calm     96% 0in /  0.0mm 67 W/m2
10:52 47.1 °F /  8.4 °C 46 °F /  7.8 °C 30.2in /  1023.7hPa Calm     96% 0in /  0.0mm 74 W/m2
10:57 47.3 °F /  8.5 °C 46.2 °F /  7.9 °C 30.2in /  1024.0hPa ENE 0.9mph /  1.4km/h 2mph /  3.2km/h 96% 0in /  0.0mm 77 W/m2
11:02 47.8 °F /  8.8 °C 46.4 °F /  8 °C 30.2in /  1024.0hPa ENE 0.9mph /  1.4km/h 2mph /  3.2km/h 95% 0in /  0.0mm 83 W/m2
11:07 48.4 °F /  9.1 °C 46.9 °F /  8.3 °C 30.2in /  1024.0hPa Calm     95% 0in /  0.0mm 84 W/m2
11:12 48.7 °F /  9.3 °C 47.1 °F /  8.4 °C 30.2in /  1024.0hPa Calm   2mph /  3.2km/h 94% 0in /  0.0mm 88 W/m2
11:17 49.3 °F /  9.6 °C 47.3 °F /  8.5 °C 30.2in /  1024.0hPa ENE 0.9mph /  1.4km/h 2mph /  3.2km/h 93% 0in /  0.0mm 79 W/m2
11:22 49.6 °F /  9.8 °C 47.5 °F /  8.6 °C 30.2in /  1023.7hPa East 0.9mph /  1.4km/h 2mph /  3.2km/h 92% 0in /  0.0mm 84 W/m2
11:27 50.2 °F /  10.1 °C 47.7 °F /  8.7 °C 30.2in /  1023.7hPa ENE 2mph /  3.2km/h 2mph /  3.2km/h 91% 0in /  0.0mm 88 W/m2
11:32 50.7 °F /  10.4 °C 47.8 °F /  8.8 °C 30.2in /  1023.7hPa ENE 0.9mph /  1.4km/h 3mph /  4.8km/h 90% 0in /  0.0mm 88 W/m2
11:37 51.1 °F /  10.6 °C 47.7 °F /  8.7 °C 30.2in /  1023.7hPa East 0.9mph /  1.4km/h 1mph /  1.6km/h 88% 0in /  0.0mm 88 W/m2
11:42 51.4 °F /  10.8 °C 47.7 °F /  8.7 °C 30.2in /  1023.7hPa Calm   3mph /  4.8km/h 87% 0in /  0.0mm 72 W/m2
11:47 51.8 °F /  11 °C 48 °F /  8.9 °C 30.2in /  1023.7hPa ENE 0.9mph /  1.4km/h 1mph /  1.6km/h 87% 0in /  0.0mm 84 W/m2
11:52 52.2 °F /  11.2 °C 48 °F /  8.9 °C 30.2in /  1023.7hPa ENE 0.9mph /  1.4km/h 3mph /  4.8km/h 86% 0in /  0.0mm 91 W/m2
11:57 52.3 °F /  11.3 °C 48.2 °F /  9 °C 30.2in /  1023.7hPa Calm     86% 0in /  0.0mm 111 W/m2
12:02 52.5 °F /  11.4 °C 48.4 °F /  9.1 °C 30.2in /  1023.7hPa East 0.9mph /  1.4km/h 2mph /  3.2km/h 86% 0in /  0.0mm 104 W/m2
12:07 52.7 °F /  11.5 °C 48.6 °F /  9.2 °C 30.2in /  1023.4hPa Calm     86% 0in /  0.0mm 97 W/m2
12:12 52.9 °F /  11.6 °C 48.7 °F /  9.3 °C 30.2in /  1023.4hPa Calm     86% 0in /  0.0mm 93 W/m2
12:17 52.9 °F /  11.6 °C 48.7 °F /  9.3 °C 30.2in /  1023.4hPa Calm     86% 0in /  0.0mm 95 W/m2
12:22 52.9 °F /  11.6 °C 49.1 °F /  9.5 °C 30.2in /  1023.4hPa Calm     87% 0in /  0.0mm 95 W/m2
12:27 52.9 °F /  11.6 °C 48.7 °F /  9.3 °C 30.2in /  1023.4hPa East 0.9mph /  1.4km/h 2mph /  3.2km/h 86% 0in /  0.0mm 95 W/m2
12:32 53.2 °F /  11.8 °C 49.1 °F /  9.5 °C 30.2in /  1023.4hPa Calm   1mph /  1.6km/h 86% 0in /  0.0mm 102 W/m2
12:37 53.4 °F /  11.9 °C 49.6 °F /  9.8 °C 30.2in /  1023.4hPa Calm     87% 0in /  0.0mm 114 W/m2
12:42 53.4 °F /  11.9 °C 49.3 °F /  9.6 °C 30.2in /  1023.4hPa Calm   3mph /  4.8km/h 86% 0in /  0.0mm 125 W/m2
12:47 53.8 °F /  12.1 °C 49.5 °F /  9.7 °C 30.2in /  1023.4hPa Calm   1mph /  1.6km/h 85% 0in /  0.0mm 127 W/m2
12:52 54.1 °F /  12.3 °C 49.5 °F /  9.7 °C 30.2in /  1023.0hPa Calm   2mph /  3.2km/h 84% 0in /  0.0mm 125 W/m2
12:57 54.3 °F /  12.4 °C 49.3 °F /  9.6 °C 30.2in /  1023.0hPa East 0.9mph /  1.4km/h 2mph /  3.2km/h 83% 0in /  0.0mm 123 W/m2
13:02 54.7 °F /  12.6 °C 49.3 °F /  9.6 °C 30.2in /  1023.0hPa Calm   2mph /  3.2km/h 82% 0in /  0.0mm 121 W/m2
13:07 54.9 °F /  12.7 °C 49.1 °F /  9.5 °C 30.2in /  1023.0hPa East 0.9mph /  1.4km/h 3mph /  4.8km/h 81% 0in /  0.0mm 123 W/m2
13:12 55 °F /  12.8 °C 49.3 °F /  9.6 °C 30.2in /  1023.0hPa ENE 0.9mph /  1.4km/h 3mph /  4.8km/h 81% 0in /  0.0mm 125 W/m2
13:17 55.2 °F /  12.9 °C 49.5 °F /  9.7 °C 30.2in /  1022.7hPa East 0.9mph /  1.4km/h 2mph /  3.2km/h 81% 0in /  0.0mm 134 W/m2
13:22 55.4 °F /  13 °C 49.6 °F /  9.8 °C 30.2in /  1022.7hPa Calm   1mph /  1.6km/h 81% 0in /  0.0mm 146 W/m2
13:27 55.6 °F /  13.1 °C 49.8 °F /  9.9 °C 30.2in /  1022.7hPa Calm   2mph /  3.2km/h 81% 0in /  0.0mm 158 W/m2
13:32 55.8 °F /  13.2 °C 50 °F /  10 °C 30.2in /  1022.7hPa NE 0.9mph /  1.4km/h 3mph /  4.8km/h 81% 0in /  0.0mm 162 W/m2
13:37 55.9 °F /  13.3 °C 50.2 °F /  10.1 °C 30.2in /  1022.7hPa East 2.9mph /  4.7km/h 3mph /  4.8km/h 81% 0in /  0.0mm 160 W/m2
13:42 56.1 °F /  13.4 °C 50.4 °F /  10.2 °C 30.2in /  1022.7hPa East 2mph /  3.2km/h 2mph /  3.2km/h 81% 0in /  0.0mm 156 W/m2
13:48 56.1 °F /  13.4 °C 50 °F /  10 °C 30.2in /  1022.7hPa ESE 0.9mph /  1.4km/h 2mph /  3.2km/h 80% 0in /  0.0mm 149 W/m2
13:53 56.3 °F /  13.5 °C 50.5 °F /  10.3 °C 30.2in /  1022.7hPa ESE 0.9mph /  1.4km/h 2mph /  3.2km/h 81% 0in /  0.0mm 144 W/m2
13:58 56.5 °F /  13.6 °C 50.4 °F /  10.2 °C 30.2in /  1022.7hPa East 0.9mph /  1.4km/h 3mph /  4.8km/h 80% 0in /  0.0mm 139 W/m2
14:03 56.5 °F /  13.6 °C 50.4 °F /  10.2 °C 30.2in /  1022.4hPa East 2mph /  3.2km/h 2mph /  3.2km/h 80% 0in /  0.0mm 139 W/m2
14:08 56.5 °F /  13.6 °C 50.4 °F /  10.2 °C 30.2in /  1022.4hPa ESE 2mph /  3.2km/h 3mph /  4.8km/h 80% 0in /  0.0mm 134 W/m2
14:13 56.5 °F /  13.6 °C 50.4 °F /  10.2 °C 30.2in /  1022.4hPa East 0.9mph /  1.4km/h 2mph /  3.2km/h 80% 0in /  0.0mm 127 W/m2
14:18 56.5 °F /  13.6 °C 50.4 °F /  10.2 °C 30.2in /  1022.4hPa Calm   1mph /  1.6km/h 80% 0in /  0.0mm 118 W/m2
14:23 56.5 °F /  13.6 °C 50.4 °F /  10.2 °C 30.2in /  1022.7hPa ESE 0.9mph /  1.4km/h 2mph /  3.2km/h 80% 0in /  0.0mm 116 W/m2
14:28 56.1 °F /  13.4 °C 50 °F /  10 °C 30.2in /  1022.4hPa Calm   2mph /  3.2km/h 80% 0in /  0.0mm 114 W/m2
14:33 56.1 °F /  13.4 °C 50 °F /  10 °C 30.2in /  1022.4hPa Calm   1mph /  1.6km/h 80% 0in /  0.0mm 111 W/m2
14:38 56.1 °F /  13.4 °C 50.4 °F /  10.2 °C 30.2in /  1022.4hPa ENE 0.9mph /  1.4km/h 2mph /  3.2km/h 81% 0in /  0.0mm 107 W/m2
14:43 56.1 °F /  13.4 °C 50.4 °F /  10.2 °C 30.2in /  1022.4hPa Calm   1mph /  1.6km/h 81% 0in /  0.0mm 102 W/m2
14:48 56.1 °F /  13.4 °C 50.4 °F /  10.2 °C 30.2in /  1022.4hPa Calm   1mph /  1.6km/h 81% 0in /  0.0mm 98 W/m2
14:53 56.1 °F /  13.4 °C 50.4 °F /  10.2 °C 30.2in /  1022.4hPa Calm   2mph /  3.2km/h 81% 0in /  0.0mm 95 W/m2
14:58 56.1 °F /  13.4 °C 50.4 °F /  10.2 °C 30.2in /  1022.4hPa Calm   1mph /  1.6km/h 81% 0in /  0.0mm 86 W/m2
15:03 56.1 °F /  13.4 °C 50.4 °F /  10.2 °C 30.2in /  1022.4hPa East 0.9mph /  1.4km/h 2mph /  3.2km/h 81% 0in /  0.0mm 79 W/m2
15:08 56.1 °F /  13.4 °C 50.4 °F /  10.2 °C 30.2in /  1022.4hPa Calm   2mph /  3.2km/h 81% 0in /  0.0mm 74 W/m2
15:13 56.1 °F /  13.4 °C 50.4 °F /  10.2 °C 30.2in /  1022.4hPa Calm     81% 0in /  0.0mm 69 W/m2
15:18 56.1 °F /  13.4 °C 50.7 °F /  10.4 °C 30.2in /  1022.4hPa Calm   2mph /  3.2km/h 82% 0in /  0.0mm 65 W/m2
15:23 56.1 °F /  13.4 °C 50.7 °F /  10.4 °C 30.2in /  1022.4hPa East 0.9mph /  1.4km/h 1mph /  1.6km/h 82% 0in /  0.0mm 62 W/m2
15:28 56.1 °F /  13.4 °C 50.7 °F /  10.4 °C 30.2in /  1022.4hPa Calm   1mph /  1.6km/h 82% 0in /  0.0mm 56 W/m2
15:33 55.9 °F /  13.3 °C 50.9 °F /  10.5 °C 30.2in /  1022.4hPa North 0.9mph /  1.4km/h 1mph /  1.6km/h 83% 0in /  0.0mm 53 W/m2
15:38 55.9 °F /  13.3 °C 50.9 °F /  10.5 °C 30.2in /  1022.4hPa Calm   1mph /  1.6km/h 83% 0in /  0.0mm 49 W/m2
15:43 55.9 °F /  13.3 °C 51.3 °F /  10.7 °C 30.2in /  1022.4hPa Calm     84% 0in /  0.0mm 47 W/m2
15:48 55.9 °F /  13.3 °C 51.3 °F /  10.7 °C 30.2in /  1022.4hPa Calm   1mph /  1.6km/h 84% 0in /  0.0mm 44 W/m2
15:53 55.8 °F /  13.2 °C 51.3 °F /  10.7 °C 30.2in /  1022.4hPa Calm     85% 0in /  0.0mm 42 W/m2
15:58 55.8 °F /  13.2 °C 51.3 °F /  10.7 °C 30.2in /  1022.4hPa Calm     85% 0in /  0.0mm 39 W/m2
16:03 55.6 °F /  13.1 °C 51.4 °F /  10.8 °C 30.2in /  1022.4hPa Calm     86% 0in /  0.0mm 32 W/m2
16:08 55.4 °F /  13 °C 51.3 °F /  10.7 °C 30.2in /  1022.0hPa Calm     86% 0in /  0.0mm 26 W/m2
16:13 55.2 °F /  12.9 °C 51.1 °F /  10.6 °C 30.2in /  1022.4hPa Calm     86% 0in /  0.0mm 25 W/m2
16:18 55 °F /  12.8 °C 50.9 °F /  10.5 °C 30.2in /  1022.4hPa Calm     86% 0in /  0.0mm 21 W/m2
16:23 55 °F /  12.8 °C 51.3 °F /  10.7 °C 30.2in /  1022.0hPa Calm   1mph /  1.6km/h 87% 0in /  0.0mm 19 W/m2
16:28 54.9 °F /  12.7 °C 51.1 °F /  10.6 °C 30.2in /  1022.0hPa Calm   1mph /  1.6km/h 87% 0in /  0.0mm 16 W/m2
16:33 54.7 °F /  12.6 °C 50.9 °F /  10.5 °C 30.2in /  1022.0hPa NNW 0.9mph /  1.4km/h 1mph /  1.6km/h 87% 0in /  0.0mm 14 W/m2
16:38 54.5 °F /  12.5 °C 50.7 °F /  10.4 °C 30.2in /  1022.0hPa Calm     87% 0in /  0.0mm 11 W/m2
16:43 54.3 °F /  12.4 °C 50.9 °F /  10.5 °C 30.2in /  1022.0hPa Calm   1mph /  1.6km/h 88% 0in /  0.0mm 9 W/m2
16:48 54.1 °F /  12.3 °C 50.7 °F /  10.4 °C 30.2in /  1022.0hPa Calm     88% 0in /  0.0mm 7 W/m2
16:53 54.1 °F /  12.3 °C 50.7 °F /  10.4 °C 30.2in /  1022.0hPa Calm   1mph /  1.6km/h 88% 0in /  0.0mm 5 W/m2
16:58 54 °F /  12.2 °C 50.5 °F /  10.3 °C 30.2in /  1022.0hPa Calm     88% 0in /  0.0mm 5 W/m2
17:03 53.8 °F /  12.1 °C 50.4 °F /  10.2 °C 30.2in /  1022.0hPa Calm     88% 0in /  0.0mm 0 W/m2
17:08 53.8 °F /  12.1 °C 50.4 °F /  10.2 °C 30.2in /  1022.0hPa Calm     88% 0in /  0.0mm 0 W/m2
17:13 53.4 °F /  11.9 °C 50.2 °F /  10.1 °C 30.2in /  1022.0hPa Calm     89% 0in /  0.0mm 0 W/m2
17:18 53.2 °F /  11.8 °C 50 °F /  10 °C 30.2in /  1022.0hPa Calm     89% 0in /  0.0mm 0 W/m2
17:23 53.2 °F /  11.8 °C 50 °F /  10 °C 30.2in /  1022.0hPa Calm     89% 0in /  0.0mm 0 W/m2
17:28 53.1 °F /  11.7 °C 50.2 °F /  10.1 °C 30.2in /  1022.0hPa Calm     90% 0in /  0.0mm 0 W/m2
17:33 52.9 °F /  11.6 °C 50 °F /  10 °C 30.2in /  1022.0hPa Calm     90% 0in /  0.0mm 0 W/m2
17:38 52.9 °F /  11.6 °C 50 °F /  10 °C 30.2in /  1022.4hPa Calm     90% 0in /  0.0mm 0 W/m2
17:43 52.5 °F /  11.4 °C 49.6 °F /  9.8 °C 30.2in /  1022.4hPa Calm     90% 0in /  0.0mm 0 W/m2
17:48 52.5 °F /  11.4 °C 50 °F /  10 °C 30.2in /  1022.4hPa Calm     91% 0in /  0.0mm 0 W/m2
17:53 52.3 °F /  11.3 °C 49.8 °F /  9.9 °C 30.2in /  1022.4hPa Calm     91% 0in /  0.0mm 0 W/m2
17:58 52.3 °F /  11.3 °C 49.8 °F /  9.9 °C 30.2in /  1022.4hPa Calm     91% 0in /  0.0mm 0 W/m2
18:03 52.2 °F /  11.2 °C 49.6 °F /  9.8 °C 30.2in /  1022.4hPa Calm     91% 0in /  0.0mm 0 W/m2
18:09 52 °F /  11.1 °C 49.5 °F /  9.7 °C 30.2in /  1022.4hPa Calm     91% 0in /  0.0mm 0 W/m2
18:14 52 °F /  11.1 °C 49.5 °F /  9.7 °C 30.2in /  1022.4hPa Calm     91% 0in /  0.0mm 0 W/m2
18:19 51.8 °F /  11 °C 49.3 °F /  9.6 °C 30.2in /  1022.4hPa Calm     91% 0in /  0.0mm 0 W/m2
18:24 51.6 °F /  10.9 °C 49.1 °F /  9.5 °C 30.2in /  1022.4hPa Calm     91% 0in /  0.0mm 0 W/m2
18:29 51.6 °F /  10.9 °C 49.5 °F /  9.7 °C 30.2in /  1022.4hPa Calm     92% 0in /  0.0mm 0 W/m2
18:34 51.4 °F /  10.8 °C 49.3 °F /  9.6 °C 30.2in /  1022.4hPa Calm   1mph /  1.6km/h 92% 0in /  0.0mm 0 W/m2
18:39 51.4 °F /  10.8 °C 49.3 °F /  9.6 °C 30.2in /  1022.4hPa Calm     92% 0in /  0.0mm 0 W/m2
18:44 51.3 °F /  10.7 °C 49.1 °F /  9.5 °C 30.2in /  1022.4hPa Calm   1mph /  1.6km/h 92% 0in /  0.0mm 0 W/m2
18:49 51.3 °F /  10.7 °C 49.1 °F /  9.5 °C 30.2in /  1022.7hPa Calm     92% 0in /  0.0mm 0 W/m2
18:54 51.1 °F /  10.6 °C 48.9 °F /  9.4 °C 30.2in /  1022.4hPa Calm     92% 0in /  0.0mm 0 W/m2
18:59 51.1 °F /  10.6 °C 48.9 °F /  9.4 °C 30.2in /  1022.4hPa Calm     92% 0in /  0.0mm 0 W/m2
19:04 50.9 °F /  10.5 °C 48.7 °F /  9.3 °C 30.2in /  1022.4hPa Calm     92% 0in /  0.0mm 0 W/m2
19:09 50.7 °F /  10.4 °C 48.6 °F /  9.2 °C 30.2in /  1022.4hPa Calm     92% 0in /  0.0mm 0 W/m2
19:14 50.7 °F /  10.4 °C 48.7 °F /  9.3 °C 30.2in /  1022.4hPa Calm     93% 0in /  0.0mm 0 W/m2
19:19 50.5 °F /  10.3 °C 48.6 °F /  9.2 °C 30.2in /  1022.4hPa Calm     93% 0in /  0.0mm 0 W/m2
19:24 50.4 °F /  10.2 °C 48.4 °F /  9.1 °C 30.2in /  1022.4hPa Calm     93% 0in /  0.0mm 0 W/m2
19:29 50.4 °F /  10.2 °C 48.4 °F /  9.1 °C 30.2in /  1022.4hPa Calm     93% 0in /  0.0mm 0 W/m2
19:34 50.4 °F /  10.2 °C 48.4 °F /  9.1 °C 30.2in /  1022.4hPa Calm     93% 0in /  0.0mm 0 W/m2
19:39 50.2 °F /  10.1 °C 48.2 °F /  9 °C 30.2in /  1022.4hPa Calm     93% 0in /  0.0mm 0 W/m2
19:44 50.2 °F /  10.1 °C 48.2 °F /  9 °C 30.2in /  1022.4hPa Calm     93% 0in /  0.0mm 0 W/m2
19:49 50 °F /  10 °C 48 °F /  8.9 °C 30.2in /  1022.4hPa Calm     93% 0in /  0.0mm 0 W/m2
19:54 50 °F /  10 °C 48.4 °F /  9.1 °C 30.2in /  1022.4hPa Calm     94% 0in /  0.0mm 0 W/m2
19:59 49.8 °F /  9.9 °C 48.2 °F /  9 °C 30.2in /  1022.4hPa Calm     94% 0in /  0.0mm 0 W/m2
20:04 49.8 °F /  9.9 °C 48.2 °F /  9 °C 30.2in /  1022.4hPa Calm     94% 0in /  0.0mm 0 W/m2
20:09 49.6 °F /  9.8 °C 48 °F /  8.9 °C 30.2in /  1022.4hPa Calm     94% 0in /  0.0mm 0 W/m2
20:14 49.6 °F /  9.8 °C 48 °F /  8.9 °C 30.2in /  1022.4hPa Calm     94% 0in /  0.0mm 0 W/m2
20:19 49.6 °F /  9.8 °C 48 °F /  8.9 °C 30.2in /  1022.4hPa Calm     94% 0in /  0.0mm 0 W/m2
20:24 49.5 °F /  9.7 °C 47.8 °F /  8.8 °C 30.2in /  1022.4hPa Calm     94% 0in /  0.0mm 0 W/m2
20:29 49.3 °F /  9.6 °C 47.7 °F /  8.7 °C 30.2in /  1022.4hPa Calm     94% 0in /  0.0mm 0 W/m2
20:34 49.3 °F /  9.6 °C 47.7 °F /  8.7 °C 30.2in /  1022.4hPa Calm     94% 0in /  0.0mm 0 W/m2
20:39 48.9 °F /  9.4 °C 47.3 °F /  8.5 °C 30.2in /  1022.4hPa Calm     94% 0in /  0.0mm 0 W/m2
20:44 48.9 °F /  9.4 °C 47.3 °F /  8.5 °C 30.2in /  1022.7hPa Calm     94% 0in /  0.0mm 0 W/m2
20:49 48.7 °F /  9.3 °C 47.1 °F /  8.4 °C 30.2in /  1022.7hPa Calm     94% 0in /  0.0mm 0 W/m2
20:54 48.7 °F /  9.3 °C 47.1 °F /  8.4 °C 30.2in /  1022.7hPa Calm   1mph /  1.6km/h 94% 0in /  0.0mm 0 W/m2
20:59 48.6 °F /  9.2 °C 46.9 °F /  8.3 °C 30.2in /  1022.7hPa Calm     94% 0in /  0.0mm 0 W/m2
21:04 48.6 °F /  9.2 °C 46.9 °F /  8.3 °C 30.2in /  1022.7hPa Calm   1mph /  1.6km/h 94% 0in /  0.0mm 0 W/m2
21:09 48.4 °F /  9.1 °C 46.8 °F /  8.2 °C 30.2in /  1022.7hPa Calm     94% 0in /  0.0mm 0 W/m2
21:14 48.4 °F /  9.1 °C 46.9 °F /  8.3 °C 30.2in /  1022.7hPa Calm     95% 0in /  0.0mm 0 W/m2
21:19 48.2 °F /  9 °C 46.8 °F /  8.2 °C 30.2in /  1022.7hPa Calm     95% 0in /  0.0mm 0 W/m2
21:24 48 °F /  8.9 °C 46.6 °F /  8.1 °C 30.2in /  1022.7hPa Calm     95% 0in /  0.0mm 0 W/m2
21:29 48 °F /  8.9 °C 46.6 °F /  8.1 °C 30.2in /  1022.7hPa Calm     95% 0in /  0.0mm 0 W/m2
21:34 47.8 °F /  8.8 °C 46.4 °F /  8 °C 30.2in /  1022.7hPa Calm     95% 0in /  0.0mm 0 W/m2
21:39 47.7 °F /  8.7 °C 46.2 °F /  7.9 °C 30.2in /  1022.7hPa Calm     95% 0in /  0.0mm 0 W/m2
21:44 47.7 °F /  8.7 °C 46.2 °F /  7.9 °C 30.2in /  1022.7hPa Calm     95% 0in /  0.0mm 0 W/m2
21:49 47.8 °F /  8.8 °C 46.4 °F /  8 °C 30.2in /  1022.7hPa Calm     95% 0in /  0.0mm 0 W/m2
21:54 47.8 °F /  8.8 °C 46.4 °F /  8 °C 30.2in /  1022.7hPa Calm     95% 0in /  0.0mm 0 W/m2
21:59 48 °F /  8.9 °C 46.9 °F /  8.3 °C 30.2in /  1022.7hPa Calm   1mph /  1.6km/h 96% 0in /  0.0mm 0 W/m2
22:04 48.2 °F /  9 °C 47.1 °F /  8.4 °C 30.2in /  1022.7hPa Calm     96% 0in /  0.0mm 0 W/m2
22:09 48.4 °F /  9.1 °C 47.3 °F /  8.5 °C 30.2in /  1022.7hPa Calm   1mph /  1.6km/h 96% 0in /  0.0mm 0 W/m2
22:14 48.4 °F /  9.1 °C 47.3 °F /  8.5 °C 30.2in /  1022.7hPa Calm     96% 0in /  0.0mm 0 W/m2
22:19 48.2 °F /  9 °C 46.8 °F /  8.2 °C 30.2in /  1022.7hPa Calm     95% 0in /  0.0mm 0 W/m2
22:24 48 °F /  8.9 °C 46.6 °F /  8.1 °C 30.2in /  1022.7hPa Calm     95% 0in /  0.0mm 0 W/m2
22:29 48 °F /  8.9 °C 46.6 °F /  8.1 °C 30.2in /  1022.7hPa Calm     95% 0in /  0.0mm 0 W/m2
22:34 47.8 °F /  8.8 °C 46.8 °F /  8.2 °C 30.2in /  1022.7hPa Calm     96% 0in /  0.0mm 0 W/m2
22:39 47.8 °F /  8.8 °C 46.8 °F /  8.2 °C 30.2in /  1022.7hPa Calm     96% 0in /  0.0mm 0 W/m2
22:44 47.8 °F /  8.8 °C 46.8 °F /  8.2 °C 30.2in /  1022.7hPa Calm     96% 0in /  0.0mm 0 W/m2
22:49 47.7 °F /  8.7 °C 46.6 °F /  8.1 °C 30.2in /  1023.0hPa Calm     96% 0in /  0.0mm 0 W/m2
22:54 47.7 °F /  8.7 °C 46.6 °F /  8.1 °C 30.2in /  1023.0hPa Calm     96% 0in /  0.0mm 0 W/m2
23:00 47.7 °F /  8.7 °C 46.6 °F /  8.1 °C 30.2in /  1023.0hPa Calm     96% 0in /  0.0mm 0 W/m2
23:05 47.7 °F /  8.7 °C 46.6 °F /  8.1 °C 30.2in /  1023.0hPa Calm     96% 0in /  0.0mm 0 W/m2
23:10 47.7 °F /  8.7 °C 46.6 °F /  8.1 °C 30.2in /  1023.0hPa Calm     96% 0in /  0.0mm 0 W/m2
23:15 47.7 °F /  8.7 °C 46.6 °F /  8.1 °C 30.2in /  1023.0hPa Calm     96% 0in /  0.0mm 0 W/m2
23:20 47.7 °F /  8.7 °C 46.6 °F /  8.1 °C 30.2in /  1023.0hPa Calm     96% 0in /  0.0mm 0 W/m2
23:25 47.7 °F /  8.7 °C 46.6 °F /  8.1 °C 30.2in /  1023.0hPa Calm     96% 0in /  0.0mm 0 W/m2
23:30 47.7 °F /  8.7 °C 46.6 °F /  8.1 °C 30.2in /  1023.0hPa Calm     96% 0in /  0.0mm 0 W/m2
23:35 47.7 °F /  8.7 °C 46.6 °F /  8.1 °C 30.2in /  1023.0hPa Calm     96% 0in /  0.0mm 0 W/m2
23:40 47.5 °F /  8.6 °C 46.4 °F /  8 °C 30.2in /  1022.7hPa Calm     96% 0in /  0.0mm 0 W/m2
23:45 47.3 °F /  8.5 °C 46.2 °F /  7.9 °C 30.2in /  1023.0hPa Calm     96% 0in /  0.0mm 0 W/m2
23:50 47.3 °F /  8.5 °C 46.2 °F /  7.9 °C 30.2in /  1023.0hPa Calm     96% 0in /  0.0mm 0 W/m2
23:55 47.1 °F /  8.4 °C 46 °F /  7.8 °C 30.2in /  1023.0hPa Calm     96% 0in /  0.0mm 0 W/m2
Juneau County Weather
Compliments of Weather Underground - 4 mb